Time;durP1;ratioP1;P1;durP2;ratioP2;P2;SDS_P1;SDS_P2;PMS_P1;PMS_P2;Temp;Humidity;BMP_temperature;BMP_pressure;BME280_temperature;BME280_humidity;BME280_pressure;Samples;Min_cycle;Max_cycle;Signal;HPM_P1;HPM_P2
2022/12/02 00:00:57;;;;;;;46.37;21.73;;;6.40;75.40;;;9.20;54.25;102734.22;5073524;28;20189;-55
2022/12/02 00:03:24;;;;;;;47.37;20.93;;;6.40;75.00;;;9.11;54.70;102732.28;5073686;28;20196;-57
2022/12/02 00:05:54;;;;;;;45.77;21.90;;;6.40;75.00;;;9.09;54.85;102728.94;5073961;28;20272;-57
2022/12/02 00:08:27;;;;;;;43.93;21.23;;;6.30;75.20;;;9.06;54.86;102726.56;5067871;28;20251;-56
2022/12/02 00:10:56;;;;;;;41.93;21.40;;;6.30;75.40;;;8.97;54.95;102736.91;5073140;28;20189;-58
2022/12/02 00:13:26;;;;;;;40.63;19.43;;;6.30;74.90;;;8.90;54.68;102720.78;5074025;28;20209;-58
2022/12/02 00:15:58;;;;;;;46.80;22.13;;;6.20;75.00;;;8.84;54.69;102719.44;5074260;28;20189;-55
2022/12/02 00:18:26;;;;;;;40.57;21.00;;;6.20;75.00;;;8.82;55.44;102717.88;5073331;28;20262;-56
2022/12/02 00:20:54;;;;;;;45.50;20.20;;;6.20;75.60;;;8.86;55.00;102724.59;5053476;28;20256;-56
2022/12/02 00:23:22;;;;;;;44.60;20.93;;;6.20;75.60;;;8.88;55.20;102730.56;5054952;28;20903;-57
2022/12/02 00:25:52;;;;;;;45.83;19.77;;;6.20;75.60;;;8.88;54.98;102725.31;5054757;28;20193;-56
2022/12/02 00:28:19;;;;;;;47.23;22.60;;;6.20;75.40;;;8.83;55.03;102720.41;5066325;28;20526;-57
2022/12/02 00:30:46;;;;;;;46.37;21.90;;;6.20;75.40;;;8.88;55.51;102717.44;5072976;28;20314;-54
2022/12/02 00:33:17;;;;;;;45.67;21.90;;;6.20;76.00;;;8.94;55.52;102716.97;5073276;28;20213;-56
2022/12/02 00:35:44;;;;;;;45.90;21.20;;;6.20;76.20;;;8.98;54.87;102712.34;5073735;28;20650;-56
2022/12/02 00:38:11;;;;;;;52.47;22.43;;;6.20;75.80;;;9.00;54.92;102707.81;5079401;28;20190;-55
2022/12/02 00:40:38;;;;;;;41.30;20.90;;;6.20;75.80;;;9.05;55.35;102710.91;5093500;28;20311;-57
2022/12/02 00:48:39;;;;;;;47.57;23.17;;;6.20;76.30;;;8.97;55.40;102711.50;5076187;28;20194;-58
2022/12/02 00:51:06;;;;;;;52.37;23.27;;;6.20;75.80;;;8.99;55.04;102712.22;5073711;28;20553;-59
2022/12/02 00:53:33;;;;;;;45.83;22.50;;;6.20;75.70;;;9.00;55.06;102706.00;5077264;28;20270;-57
2022/12/02 00:56:00;;;;;;;54.40;24.07;;;6.20;75.70;;;8.96;55.18;102709.00;5077278;28;20670;-57
2022/12/02 00:58:27;;;;;;;56.23;23.60;;;6.20;75.30;;;8.86;54.97;102700.97;5076673;28;20193;-60
2022/12/02 01:00:54;;;;;;;54.60;24.50;;;6.20;75.20;;;8.70;55.16;102703.06;5077493;28;20189;-55
2022/12/02 01:03:21;;;;;;;52.43;23.53;;;6.10;75.20;;;8.67;55.99;102698.03;5077401;28;20185;-57
2022/12/02 01:05:50;;;;;;;47.97;21.83;;;6.10;75.80;;;8.70;55.95;102695.19;5077360;28;20205;-57
2022/12/02 01:08:17;;;;;;;54.57;23.87;;;6.00;76.00;;;8.71;55.65;102699.47;5076757;28;20189;-55
2022/12/02 01:10:44;;;;;;;53.47;24.07;;;6.00;76.20;;;8.70;55.79;102697.81;5093967;28;20198;-56
2022/12/02 01:13:11;;;;;;;52.87;22.77;;;6.00;76.20;;;8.65;55.85;102699.94;5097362;28;20220;-56
2022/12/02 01:15:38;;;;;;;50.03;23.17;;;6.00;76.20;;;8.59;55.75;102697.75;5097320;28;20252;-55
2022/12/02 01:18:05;;;;;;;50.57;23.60;;;5.90;76.20;;;8.54;55.99;102686.75;5086216;28;20195;-56
2022/12/02 01:20:32;;;;;;;48.77;22.77;;;5.90;76.30;;;8.54;56.43;102692.00;5059346;28;20200;-56
2022/12/02 01:23:01;;;;;;;46.37;21.50;;;5.80;76.50;;;8.57;56.13;102691.78;5057397;28;20213;-56
2022/12/02 01:25:28;;;;;;;50.53;23.03;;;5.80;76.80;;;8.58;56.14;102694.28;5057276;28;20195;-56
2022/12/02 01:27:56;;;;;;;50.50;22.70;;;5.80;76.70;;;8.57;56.05;102694.41;5065935;28;20193;-56
2022/12/02 01:30:23;;;;;;;46.60;21.37;;;5.80;76.70;;;8.53;56.25;102692.97;5077010;28;20198;-57
2022/12/02 01:32:50;;;;;;;49.57;21.80;;;5.80;77.00;;;8.50;56.48;102694.03;5076763;28;20225;-58
2022/12/02 01:35:17;;;;;;;47.73;21.80;;;5.80;76.80;;;8.47;56.23;102696.88;5076697;28;20553;-58
2022/12/02 01:37:44;;;;;;;50.03;22.20;;;5.80;76.80;;;8.44;56.26;102693.66;5079682;28;20200;-56
2022/12/02 01:40:15;;;;;;;46.33;21.17;;;5.80;76.80;;;8.38;56.40;102688.84;5096726;28;20199;-57
2022/12/02 01:42:44;;;;;;;42.83;19.90;;;5.70;76.70;;;8.31;56.28;102692.84;5096243;28;20221;-57
2022/12/02 01:45:12;;;;;;;42.63;19.73;;;5.70;76.50;;;8.32;56.43;102691.91;5096598;28;20198;-55
2022/12/02 01:47:40;;;;;;;42.97;19.80;;;5.70;76.80;;;8.33;56.17;102693.56;5087357;28;20693;-57
2022/12/02 01:50:11;;;;;;;40.33;18.77;;;5.70;76.60;;;8.33;56.47;102693.56;5076298;28;20187;-58
2022/12/02 01:52:38;;;;;;;44.20;19.30;;;5.70;76.70;;;8.35;56.07;102681.19;5075586;28;20220;-56
2022/12/02 01:55:11;;;;;;;43.00;20.07;;;5.70;76.70;;;8.38;56.08;102683.59;5076788;28;20189;-58
2022/12/02 01:57:39;;;;;;;45.37;19.33;;;5.70;76.70;;;8.46;56.57;102689.94;5076238;28;20205;-56
2022/12/02 02:00:08;;;;;;;44.77;21.03;;;5.70;77.50;;;8.55;56.03;102688.44;5076356;28;20191;-58
2022/12/02 02:02:38;;;;;;;44.00;20.27;;;5.80;77.00;;;8.55;55.01;102689.28;5075327;28;20699;-57
2022/12/02 02:05:10;;;;;;;44.53;20.07;;;5.80;76.40;;;8.54;55.61;102690.22;5075927;28;20215;-56
2022/12/02 02:07:39;;;;;;;46.13;19.90;;;5.80;76.10;;;8.57;55.70;102691.78;5074064;28;20195;-57
2022/12/02 02:10:09;;;;;;;45.30;19.30;;;5.80;76.40;;;8.60;55.89;102691.56;5087721;28;20561;-56
2022/12/02 02:12:36;;;;;;;38.80;18.53;;;5.80;76.40;;;8.59;55.50;102684.63;5095443;28;20216;-58
2022/12/02 02:15:08;;;;;;;43.80;20.03;;;5.80;75.90;;;8.59;55.50;102679.38;5096012;28;20192;-56
2022/12/02 02:17:35;;;;;;;43.07;19.47;;;5.80;75.90;;;8.61;55.42;102680.94;5091528;28;20183;-59
2022/12/02 02:20:08;;;;;;;41.87;19.70;;;5.80;75.90;;;8.64;55.63;102682.50;5062856;28;20194;-57
2022/12/02 02:22:44;;;;;;;40.10;18.83;;;5.80;76.40;;;8.67;55.62;102672.63;5056001;28;20210;-55
2022/12/02 02:25:16;;;;;;;40.57;18.70;;;5.90;76.50;;;8.70;55.49;102671.56;5055539;28;20184;-57
2022/12/02 02:27:53;;;;;;;49.17;21.00;;;5.90;76.40;;;8.74;55.05;102676.47;5061275;28;20637;-55
2022/12/02 02:30:20;;;;;;;45.67;20.60;;;5.90;76.20;;;8.76;55.55;102671.09;5075008;28;20551;-58
2022/12/02 02:32:48;;;;;;;48.60;21.03;;;5.90;75.90;;;8.68;55.67;102668.19;5075438;28;20223;-56
2022/12/02 02:35:18;;;;;;;46.20;21.83;;;6.00;75.80;;;8.70;55.71;102666.31;5075959;28;20496;-59
2022/12/02 02:37:48;;;;;;;47.30;21.23;;;5.90;76.10;;;8.74;55.65;102659.88;5076005;28;20200;-58
2022/12/02 02:40:17;;;;;;;46.17;20.10;;;6.00;76.30;;;8.79;55.82;102658.56;5075878;28;20191;-58
2022/12/02 02:42:48;;;;;;;48.67;22.37;;;6.00;76.70;;;8.85;55.70;102657.28;5075778;28;20233;-56
2022/12/02 02:45:16;;;;;;;49.60;19.87;;;6.00;76.50;;;8.87;55.56;102660.59;5075719;28;20655;-57
2022/12/02 02:47:44;;;;;;;50.30;21.13;;;6.00;76.30;;;8.90;55.41;102656.91;5073682;28;20571;-57
2022/12/02 02:50:12;;;;;;;49.27;20.73;;;6.00;76.40;;;8.95;55.69;102655.63;5076085;28;20240;-55
2022/12/02 02:52:39;;;;;;;45.40;20.83;;;6.10;76.60;;;8.98;55.41;102655.41;5075506;28;20213;-58
2022/12/02 02:55:11;;;;;;;46.90;21.07;;;6.10;76.40;;;9.01;55.25;102644.63;5075610;28;20600;-56
2022/12/02 02:57:39;;;;;;;42.70;20.20;;;6.20;76.50;;;9.03;55.38;102642.75;5075012;28;20211;-57
2022/12/02 03:00:08;;;;;;;48.43;21.30;;;6.20;76.30;;;8.95;55.15;102647.75;5075937;28;20205;-56
2022/12/02 03:02:36;;;;;;;46.47;20.60;;;6.20;75.70;;;8.91;55.27;102642.84;5074853;28;20209;-56
2022/12/02 03:05:05;;;;;;;41.90;19.90;;;6.20;75.80;;;8.89;55.52;102644.75;5090908;28;20654;-55
2022/12/02 03:07:33;;;;;;;44.90;20.00;;;6.10;75.90;;;8.91;55.53;102641.06;5074786;28;20204;-56
2022/12/02 03:10:01;;;;;;;46.87;20.83;;;6.10;76.40;;;8.84;55.20;102643.31;5086908;28;20255;-56
2022/12/02 03:12:29;;;;;;;45.97;21.60;;;6.10;75.90;;;8.79;55.18;102644.63;5094289;28;20613;-55
2022/12/02 03:14:59;;;;;;;45.73;21.27;;;6.00;75.70;;;8.70;55.35;102640.88;5094633;28;20212;-57
2022/12/02 03:17:26;;;;;;;41.57;20.13;;;6.00;75.90;;;8.72;55.89;102640.78;5092822;28;20188;-55
2022/12/02 03:19:53;;;;;;;39.60;20.03;;;6.00;76.50;;;8.73;55.74;102634.56;5062873;28;20231;-57
2022/12/02 03:22:21;;;;;;;47.87;20.67;;;6.00;76.80;;;8.70;55.83;102640.88;5054116;28;20214;-58
2022/12/02 03:24:48;;;;;;;46.63;21.10;;;5.90;76.80;;;8.69;56.03;102643.63;5054602;28;20188;-57
2022/12/02 03:27:15;;;;;;;43.30;20.00;;;5.90;76.80;;;8.70;56.26;102640.06;5054370;28;20678;-59
2022/12/02 03:29:43;;;;;;;43.10;20.93;;;5.90;77.10;;;8.74;56.28;102637.09;5071790;28;20537;-57
2022/12/02 03:32:12;;;;;;;42.87;20.17;;;5.90;77.40;;;8.78;56.25;102629.81;5074298;28;20213;-57
2022/12/02 03:34:41;;;;;;;47.10;20.20;;;5.90;77.50;;;8.80;56.14;102625.28;5074469;28;20199;-56
2022/12/02 03:37:09;;;;;;;51.43;21.80;;;6.00;77.60;;;8.87;56.19;102618.59;5074633;28;20203;-57
2022/12/02 03:39:36;;;;;;;46.20;20.80;;;6.00;77.60;;;8.92;56.56;102624.34;5077222;28;20195;-56
2022/12/02 03:42:04;;;;;;;40.30;18.40;;;6.00;77.70;;;8.97;56.28;102627.47;5073688;28;20212;-56
2022/12/02 03:44:31;;;;;;;41.27;20.13;;;6.00;77.60;;;8.99;55.88;102624.69;5074198;28;20190;-56
2022/12/02 03:47:00;;;;;;;54.70;21.00;;;6.10;77.60;;;8.98;55.90;102618.63;5073870;28;20193;-57
2022/12/02 03:49:31;;;;;;;49.10;20.37;;;6.10;77.40;;;8.94;56.12;102621.63;5073596;28;20199;-58
2022/12/02 03:51:59;;;;;;;45.60;21.07;;;6.10;77.40;;;8.96;56.55;102631.06;5073715;28;20229;-58
2022/12/02 03:54:26;;;;;;;39.90;18.63;;;6.10;78.00;;;8.94;55.99;102630.31;5074815;28;20217;-58
2022/12/02 03:56:53;;;;;;;48.57;20.67;;;6.10;77.40;;;8.90;56.04;102621.00;5074408;28;20231;-58
2022/12/02 03:59:25;;;;;;;44.97;19.27;;;6.10;77.50;;;8.89;56.16;102616.69;5073509;28;20262;-57
2022/12/02 04:01:52;;;;;;;43.87;20.17;;;6.10;77.50;;;8.82;56.09;102618.13;5073713;28;20264;-60
2022/12/02 04:04:19;;;;;;;39.47;19.93;;;6.10;77.10;;;8.77;56.36;102625.53;5074426;28;20344;-57
2022/12/02 04:06:48;;;;;;;44.33;19.63;;;6.00;77.20;;;8.73;56.66;102618.81;5073853;28;20279;-56
2022/12/02 04:09:15;;;;;;;40.23;19.40;;;6.00;77.50;;;8.69;56.26;102614.75;5078209;28;20246;-55
2022/12/02 04:11:42;;;;;;;43.07;19.53;;;6.00;78.00;;;8.66;56.96;102614.97;5093159;28;20213;-55
2022/12/02 04:14:09;;;;;;;43.80;19.33;;;5.90;77.60;;;8.65;56.51;102610.72;5094444;28;20200;-56
2022/12/02 04:16:36;;;;;;;44.60;19.03;;;5.90;77.60;;;8.64;56.66;102609.88;5097082;28;20194;-55
2022/12/02 04:19:03;;;;;;;43.50;19.10;;;5.90;77.80;;;8.66;56.82;102609.72;5078639;28;20200;-58
2022/12/02 04:21:30;;;;;;;34.70;18.83;;;5.90;78.00;;;8.65;56.48;102606.25;5053226;28;20627;-59
2022/12/02 04:23:58;;;;;;;40.10;17.80;;;5.90;77.50;;;8.62;56.49;102605.69;5053446;28;20197;-57
2022/12/02 04:26:25;;;;;;;41.77;17.83;;;5.80;77.40;;;8.60;56.61;102607.59;5053617;28;20262;-58
2022/12/02 04:28:52;;;;;;;41.63;19.97;;;5.90;77.40;;;8.59;56.56;102612.00;5061899;28;20195;-56
2022/12/02 04:31:19;;;;;;;38.47;18.93;;;5.80;77.40;;;8.47;56.25;102612.06;5073431;28;20665;-58
2022/12/02 04:33:46;;;;;;;42.80;20.73;;;5.80;76.80;;;8.30;56.26;102617.72;5073260;28;20748;-58
2022/12/02 04:36:13;;;;;;;45.97;19.70;;;5.70;76.50;;;8.18;56.80;102620.28;5073541;28;20223;-56
2022/12/02 04:38:40;;;;;;;41.47;19.60;;;5.60;76.90;;;8.06;57.17;102617.69;5078681;28;20274;-56
2022/12/02 04:41:08;;;;;;;44.07;21.17;;;5.50;77.00;;;8.05;57.35;102627.38;5073851;28;20186;-57
2022/12/02 04:43:35;;;;;;;41.93;20.53;;;5.50;77.90;;;8.05;57.33;102624.75;5074030;28;20200;-57
2022/12/02 04:46:02;;;;;;;45.83;20.93;;;5.50;77.80;;;8.03;56.97;102623.19;5073198;28;20194;-56
2022/12/02 04:48:29;;;;;;;42.90;21.63;;;5.40;77.30;;;8.01;56.68;102620.66;5072353;28;20250;-59
2022/12/02 04:50:56;;;;;;;43.13;22.03;;;5.40;77.40;;;7.98;56.94;102620.91;5072859;28;20712;-57
2022/12/02 04:53:23;;;;;;;45.83;21.30;;;5.40;77.40;;;7.98;56.93;102615.66;5073239;28;20200;-56
2022/12/02 04:55:50;;;;;;;45.07;22.43;;;5.30;77.50;;;8.00;56.83;102613.75;5073240;28;20221;-58
2022/12/02 04:58:19;;;;;;;45.80;21.83;;;5.30;77.50;;;8.05;56.53;102622.13;5071554;28;20194;-57
2022/12/02 05:00:46;;;;;;;37.97;21.10;;;5.30;77.30;;;7.96;55.69;102612.28;5072703;28;20198;-56
2022/12/02 05:03:13;;;;;;;42.77;19.97;;;5.30;75.80;;;7.95;56.27;102626.38;5073041;28;20213;-57
2022/12/02 05:05:40;;;;;;;41.67;21.60;;;5.30;76.20;;;7.92;55.49;102626.56;5073735;28;20200;-56
2022/12/02 05:08:07;;;;;;;42.77;21.10;;;5.30;75.50;;;7.96;55.75;102617.53;5072384;28;20299;-60
2022/12/02 05:10:34;;;;;;;41.77;21.57;;;5.30;76.00;;;8.00;55.68;102611.13;5088514;28;20560;-57
2022/12/02 05:13:01;;;;;;;44.17;21.93;;;5.30;75.60;;;8.00;54.98;102613.75;5092713;28;20267;-57
2022/12/02 05:15:29;;;;;;;41.00;21.10;;;5.30;74.80;;;7.94;54.91;102619.44;5093202;28;20274;-57
2022/12/02 05:17:56;;;;;;;44.80;23.13;;;5.30;74.60;;;7.93;55.02;102615.16;5092729;28;20215;-60
2022/12/02 05:20:23;;;;;;;39.87;19.77;;;5.30;75.50;;;7.99;55.59;102622.56;5056243;28;20203;-59
2022/12/02 05:22:50;;;;;;;44.30;22.13;;;5.30;75.60;;;8.06;55.04;102609.84;5052703;28;20210;-56
2022/12/02 05:25:17;;;;;;;43.10;22.37;;;5.30;75.50;;;8.11;55.11;102616.44;5052762;28;20265;-57
2022/12/02 05:27:44;;;;;;;47.50;22.77;;;5.30;75.50;;;8.12;54.36;102612.88;5053063;28;20202;-58
2022/12/02 05:30:13;;;;;;;47.53;24.23;;;5.30;74.50;;;8.04;54.26;102612.59;5070921;28;20198;-57
2022/12/02 05:32:41;;;;;;;43.03;23.60;;;5.30;73.90;;;8.01;54.37;102615.41;5072361;28;20217;-58
2022/12/02 05:35:08;;;;;;;49.13;23.90;;;5.30;74.00;;;7.88;54.34;102609.41;5072345;28;20260;-58
2022/12/02 05:37:35;;;;;;;48.07;23.83;;;5.30;73.80;;;7.79;54.57;102615.31;5077800;28;20263;-58
2022/12/02 05:40:04;;;;;;;45.83;23.03;;;5.20;73.50;;;7.76;54.51;102615.53;5078875;28;20226;-57
2022/12/02 05:42:33;;;;;;;46.50;22.53;;;5.20;73.80;;;7.74;54.32;102622.66;5074761;28;20245;-55
2022/12/02 05:45:12;;;;;;;40.20;22.23;;;5.10;74.20;;;7.76;54.90;102614.69;5076258;28;20252;-59
2022/12/02 05:47:39;;;;;;;46.73;24.00;;;5.10;74.60;;;7.73;54.66;102620.97;5076103;28;20210;-58
2022/12/02 05:50:12;;;;;;;45.47;23.57;;;5.10;74.30;;;7.73;55.48;102609.66;5075160;28;20667;-58
2022/12/02 05:52:42;;;;;;;48.70;23.80;;;5.10;74.90;;;7.81;55.62;102607.34;5076072;28;20218;-56
2022/12/02 05:55:14;;;;;;;46.90;23.20;;;5.10;75.60;;;7.88;55.22;102612.03;5076245;28;20653;-57
2022/12/02 05:57:41;;;;;;;42.23;22.70;;;5.20;75.50;;;7.95;55.04;102612.41;5075978;28;20192;-58
2022/12/02 06:00:16;;;;;;;47.43;22.87;;;5.20;75.30;;;7.97;55.02;102619.22;5058553;28;20203;-58
2022/12/02 06:02:47;;;;;;;48.53;24.80;;;5.20;75.30;;;7.93;54.61;102617.78;5055743;28;20215;-58
2022/12/02 06:05:24;;;;;;;44.13;22.40;;;5.20;74.20;;;7.92;54.57;102626.56;5055666;28;20280;-56
2022/12/02 06:07:55;;;;;;;46.83;23.83;;;5.30;74.60;;;7.91;54.28;102624.06;5072330;28;20644;-58
2022/12/02 06:10:27;;;;;;;46.53;22.97;;;5.30;74.30;;;7.89;54.62;102621.53;5088900;28;20198;-57
2022/12/02 06:13:00;;;;;;;48.00;23.57;;;5.20;74.00;;;7.90;54.94;102628.47;5095411;28;20221;-56
2022/12/02 06:15:35;;;;;;;44.17;24.13;;;5.20;74.40;;;7.93;54.59;102611.69;5096128;28;20209;-58
2022/12/02 06:18:11;;;;;;;41.30;23.63;;;5.30;74.40;;;7.91;54.22;102619.69;5096704;28;20231;-57
2022/12/02 06:20:40;;;;;;;42.53;23.27;;;5.20;74.00;;;7.96;54.68;102616.72;5073132;28;20199;-59
2022/12/02 06:23:13;;;;;;;46.30;23.73;;;5.20;74.20;;;7.94;54.08;102614.19;5075569;28;20221;-59
2022/12/02 06:25:41;;;;;;;42.30;23.43;;;5.20;73.90;;;7.96;54.46;102622.78;5076525;28;20175;-55
2022/12/02 06:28:24;;;;;;;49.00;25.80;;;5.30;74.10;;;7.99;54.42;102627.81;5075694;28;20245;-57
2022/12/02 06:30:57;;;;;;;48.67;24.80;;;5.30;74.30;;;8.04;54.84;102623.06;5057848;28;20676;-59
2022/12/02 06:33:30;;;;;;;47.10;25.03;;;5.30;74.60;;;8.11;54.54;102626.91;5055487;28;20203;-57
2022/12/02 06:36:03;;;;;;;84.70;54.53;;;5.30;74.60;;;8.17;54.15;102626.50;5055812;28;20265;-58
2022/12/02 06:38:35;;;;;;;52.90;27.30;;;5.40;74.60;;;8.23;53.94;102625.19;5057006;28;20271;-58
2022/12/02 06:41:16;;;;;;;51.20;24.87;;;5.40;73.90;;;8.18;53.79;102622.91;5074328;28;20286;-58
2022/12/02 06:45:03;;;;;;;47.27;26.13;;;5.50;73.60;;;8.16;53.96;102624.81;5075499;28;20210;-56
2022/12/02 06:46:34;;;;;;;52.50;27.57;;;5.50;73.60;;;8.19;53.79;102623.75;5074909;28;20246;-58
2022/12/02 06:49:15;;;;;;;51.77;26.80;;;5.40;73.70;;;8.15;53.81;102620.50;5073757;28;20279;-56
2022/12/02 06:51:43;;;;;;;54.87;28.17;;;5.50;73.70;;;8.15;54.09;102625.72;5074535;28;20209;-57
2022/12/02 06:54:19;;;;;;;52.47;27.67;;;5.40;73.70;;;8.16;54.02;102629.19;5075306;28;20244;-58
2022/12/02 06:56:48;;;;;;;54.77;27.90;;;5.50;73.90;;;8.20;54.13;102634.09;5074902;28;20344;-58
2022/12/02 06:59:20;;;;;;;55.87;28.93;;;5.50;73.90;;;8.23;53.74;102630.44;5074176;28;20198;-56
2022/12/02 07:01:51;;;;;;;54.37;28.43;;;5.50;73.70;;;8.23;53.64;102635.66;5074380;28;20212;-56
2022/12/02 07:04:34;;;;;;;54.73;28.30;;;5.50;73.70;;;8.23;54.04;102634.81;5075270;28;20635;-56
2022/12/02 07:07:16;;;;;;;48.47;27.10;;;5.50;73.90;;;8.22;53.81;102633.16;5075773;28;20185;-59
2022/12/02 07:09:47;;;;;;;53.33;27.67;;;5.50;73.40;;;8.23;53.85;102637.44;5082907;28;20603;-61
2022/12/02 07:12:19;;;;;;;52.90;27.13;;;5.50;74.20;;;8.25;53.90;102636.38;5094534;28;20221;-58
2022/12/02 07:14:50;;;;;;;55.50;28.83;;;5.50;73.80;;;8.30;53.92;102636.09;5096391;28;20250;-57
2022/12/02 07:17:25;;;;;;;53.90;28.53;;;5.50;74.00;;;8.23;53.80;102645.31;5099480;28;20179;-59
2022/12/02 07:20:01;;;;;;;58.17;30.30;;;5.50;73.50;;;8.24;54.25;102647.00;5076492;28;20200;-59
2022/12/02 07:22:34;;;;;;;53.67;29.10;;;5.50;74.00;;;8.28;54.08;102649.31;5061690;28;20211;-58
2022/12/02 07:25:33;;;;;;;59.23;30.23;;;5.50;74.10;;;8.27;54.04;102646.81;5061485;28;20242;-59
2022/12/02 07:28:13;;;;;;;51.40;27.13;;;5.50;74.10;;;8.29;54.41;102642.28;5061424;28;20740;-59
2022/12/02 07:30:41;;;;;;;65.33;31.30;;;5.50;74.10;;;8.32;54.02;102648.13;5078042;28;20195;-60
2022/12/02 07:33:08;;;;;;;58.30;31.93;;;5.50;74.10;;;8.30;53.84;102641.31;5078452;28;20265;-59
2022/12/02 07:35:35;;;;;;;58.30;30.20;;;5.60;73.60;;;8.27;54.08;102642.41;5079691;28;20248;-60
2022/12/02 07:38:04;;;;;;;53.43;28.20;;;5.50;73.90;;;8.30;54.07;102644.78;5090066;28;20219;-59
2022/12/02 07:40:30;;;;;;;57.23;31.20;;;5.50;74.10;;;8.27;53.88;102649.44;5068240;28;20215;-58
2022/12/02 07:42:57;;;;;;;55.57;29.10;;;5.50;73.60;;;8.19;53.86;102645.56;5065838;28;20212;-60
2022/12/02 07:45:25;;;;;;;60.23;30.43;;;5.50;73.70;;;8.18;54.55;102643.88;5063659;28;20190;-60
2022/12/02 07:47:52;;;;;;;59.43;29.70;;;5.50;74.30;;;8.19;54.32;102653.44;5063680;28;20188;-59
2022/12/02 07:50:19;;;;;;;63.00;32.57;;;5.50;74.00;;;8.19;54.28;102645.56;5064184;28;20270;-60
2022/12/02 07:52:46;;;;;;;57.90;31.67;;;5.50;74.20;;;8.23;54.50;102645.31;5064944;28;20259;-59
2022/12/02 07:55:16;;;;;;;53.97;30.27;;;5.50;74.60;;;8.28;54.26;102643.22;5058077;28;20207;-55
2022/12/02 07:57:52;;;;;;;51.73;28.67;;;5.50;74.40;;;8.26;54.29;102645.09;5054310;28;20244;-56
2022/12/02 08:00:21;;;;;;;53.03;29.37;;;5.50;74.30;;;8.29;54.26;102650.16;5068826;28;20197;-60
2022/12/02 08:02:48;;;;;;;54.47;30.87;;;5.50;74.30;;;8.26;54.05;102653.84;5074997;28;20216;-58
2022/12/02 08:05:15;;;;;;;53.40;30.63;;;5.50;73.90;;;8.26;54.21;102652.97;5074014;28;20235;-58
2022/12/02 08:07:43;;;;;;;53.00;30.43;;;5.50;74.20;;;8.29;54.43;102647.53;5074569;28;20206;-56
2022/12/02 08:10:11;;;;;;;48.37;27.80;;;5.50;74.50;;;8.33;54.48;102641.97;5086091;28;20200;-57
2022/12/02 08:12:39;;;;;;;55.17;29.63;;;5.50;74.50;;;8.39;54.15;102644.13;5093055;28;20212;-57
2022/12/02 08:15:08;;;;;;;51.00;29.37;;;5.60;74.50;;;8.39;53.80;102645.94;5093512;28;20225;-56
2022/12/02 08:17:36;;;;;;;49.10;28.07;;;5.50;73.80;;;8.37;53.84;102642.59;5094266;28;20198;-55
2022/12/02 08:20:06;;;;;;;49.30;29.57;;;5.60;73.90;;;8.33;53.89;102646.34;5066520;28;20248;-58
2022/12/02 08:22:33;;;;;;;51.47;27.63;;;5.60;73.90;;;8.35;54.34;102654.94;5053536;28;20234;-55
2022/12/02 08:25:00;;;;;;;49.33;29.60;;;5.50;74.50;;;8.39;54.28;102657.22;5054589;28;20300;-57
2022/12/02 08:27:27;;;;;;;51.07;29.03;;;5.60;74.60;;;8.40;54.09;102653.66;5053858;28;20191;-58
2022/12/02 08:29:55;;;;;;;50.90;28.97;;;5.60;74.30;;;8.37;53.94;102663.56;5052946;28;20240;-58
2022/12/02 08:32:22;;;;;;;51.63;29.67;;;5.60;73.90;;;8.31;54.03;102653.50;5054048;28;20247;-58
2022/12/02 08:34:49;;;;;;;49.93;29.23;;;5.50;73.80;;;8.30;54.53;102652.66;5061898;28;20197;-58
2022/12/02 08:37:17;;;;;;;53.63;29.00;;;5.60;74.50;;;8.24;54.36;102658.34;5074973;28;20185;-59
2022/12/02 08:39:44;;;;;;;53.60;30.37;;;5.50;74.20;;;8.19;54.44;102661.31;5079168;28;20206;-59
2022/12/02 08:42:11;;;;;;;49.53;28.90;;;5.50;74.10;;;8.12;54.65;102667.09;5074853;28;20277;-56
2022/12/02 08:44:38;;;;;;;47.87;28.43;;;5.50;74.30;;;8.12;55.24;102667.09;5074451;28;20190;-55
2022/12/02 08:47:07;;;;;;;48.27;29.57;;;5.40;74.90;;;8.15;54.95;102654.59;5073790;28;20205;-58
2022/12/02 08:49:34;;;;;;;47.10;28.40;;;5.40;75.10;;;8.22;55.07;102664.66;5065755;28;20245;-57
2022/12/02 08:52:01;;;;;;;51.17;29.33;;;5.40;75.60;;;8.29;55.18;102668.53;5065585;28;20278;-54
2022/12/02 08:54:28;;;;;;;47.90;28.63;;;5.50;75.90;;;8.29;54.64;102661.50;5074838;28;20279;-56
2022/12/02 08:56:55;;;;;;;49.90;28.83;;;5.50;75.20;;;8.22;54.50;102664.66;5074946;28;20683;-56
2022/12/02 08:59:28;;;;;;;53.03;29.60;;;5.50;74.70;;;8.10;54.75;102667.22;5065971;28;20277;-57
2022/12/02 09:01:55;;;;;;;50.50;30.03;;;5.50;74.50;;;8.05;55.10;102664.09;5085261;28;20543;-56
2022/12/02 09:04:24;;;;;;;47.00;29.13;;;5.50;74.70;;;8.10;55.49;102663.75;5053829;28;20663;-56
2022/12/02 09:06:51;;;;;;;48.17;29.33;;;5.50;75.20;;;8.14;54.81;102665.19;5060042;28;20207;-60
2022/12/02 09:09:18;;;;;;;48.30;28.93;;;5.50;74.80;;;8.21;54.80;102666.44;5071455;28;20259;-59
2022/12/02 09:11:45;;;;;;;49.10;29.13;;;5.40;74.90;;;8.19;54.58;102666.56;5069517;28;20233;-57
2022/12/02 09:14:12;;;;;;;47.23;28.60;;;5.40;74.60;;;8.21;55.06;102674.28;5076746;28;20198;-55
2022/12/02 09:16:39;;;;;;;49.23;29.23;;;5.50;74.80;;;8.23;54.78;102669.75;5077555;28;20215;-55
2022/12/02 09:19:07;;;;;;;45.70;28.87;;;5.50;75.00;;;8.27;54.35;102680.91;5060128;28;20214;-58
2022/12/02 09:21:36;;;;;;;48.20;29.47;;;5.40;74.70;;;8.28;54.59;102679.94;5077044;28;20545;-58
2022/12/02 09:24:03;;;;;;;46.97;29.17;;;5.50;74.80;;;8.26;54.30;102681.81;5078457;28;20248;-58
2022/12/02 09:26:31;;;;;;;45.70;28.60;;;5.50;74.20;;;8.17;54.19;102681.56;5078364;28;20190;-59
2022/12/02 09:28:58;;;;;;;47.00;30.13;;;5.50;73.90;;;8.15;54.62;102680.81;5076894;28;20252;-57
2022/12/02 09:31:25;;;;;;;46.20;28.13;;;5.50;74.10;;;8.22;54.84;102680.38;5072011;28;20644;-56
2022/12/02 09:33:53;;;;;;;50.60;30.23;;;5.50;74.90;;;8.21;54.60;102684.78;5057847;28;20539;-59
2022/12/02 09:36:20;;;;;;;47.57;27.40;;;5.50;74.50;;;8.22;54.44;102680.38;5056868;28;20225;-58
2022/12/02 09:38:50;;;;;;;50.37;30.50;;;5.50;74.30;;;8.22;54.97;102686.47;5079067;28;20726;-59
2022/12/02 09:41:20;;;;;;;47.10;27.67;;;5.50;74.40;;;8.26;55.02;102685.31;5078123;28;20229;-59
2022/12/02 09:43:49;;;;;;;47.33;30.27;;;5.50;74.80;;;8.30;54.78;102685.91;5077539;28;20201;-59
2022/12/02 09:46:18;;;;;;;48.63;29.00;;;5.60;74.60;;;8.35;54.49;102682.03;5080716;28;20204;-58
2022/12/02 09:48:51;;;;;;;48.03;29.30;;;5.60;75.20;;;8.33;54.28;102685.72;5078221;28;20193;-58
2022/12/02 09:51:23;;;;;;;49.87;29.73;;;5.60;74.10;;;8.29;54.38;102681.66;5080919;28;20213;-58
2022/12/02 09:53:53;;;;;;;46.80;27.93;;;5.60;74.00;;;8.31;54.20;102679.75;5078531;28;20194;-56
2022/12/02 09:56:21;;;;;;;44.50;29.47;;;5.60;74.00;;;8.37;54.52;102679.31;5079714;28;20687;-58
2022/12/02 09:58:52;;;;;;;46.07;28.47;;;5.60;74.30;;;8.35;54.05;102678.56;5076847;28;20837;-56
2022/12/02 10:01:19;;;;;;;46.93;29.20;;;5.60;73.80;;;8.37;54.18;102668.81;5057429;28;20221;-59
2022/12/02 10:03:49;;;;;;;46.37;28.40;;;5.60;73.90;;;8.40;54.11;102671.19;5056873;28;20200;-60
2022/12/02 10:06:25;;;;;;;46.57;30.70;;;5.70;73.80;;;8.40;54.21;102673.81;5083760;28;20269;-59
2022/12/02 10:08:56;;;;;;;45.90;30.17;;;5.70;73.80;;;8.42;54.03;102674.53;5078023;28;20244;-60
2022/12/02 10:11:27;;;;;;;49.23;32.80;;;5.70;74.00;;;8.45;54.16;102669.06;5063743;28;20271;-59
2022/12/02 10:13:58;;;;;;;47.13;28.70;;;5.70;74.00;;;8.48;53.58;102672.31;5077167;28;20205;-59
2022/12/02 10:16:26;;;;;;;43.73;27.83;;;5.70;73.60;;;8.46;53.69;102668.13;5076539;28;20761;-60
2022/12/02 10:18:59;;;;;;;44.03;27.73;;;5.70;73.20;;;8.40;53.47;102671.19;5071710;28;20198;-58
2022/12/02 10:21:29;;;;;;;42.30;27.77;;;5.70;73.20;;;8.41;53.98;102670.25;5057581;28;20246;-57
2022/12/02 10:24:00;;;;;;;42.50;27.97;;;5.70;73.50;;;8.48;53.80;102666.22;5056761;28;20526;-59
2022/12/02 10:26:48;;;;;;;45.60;29.00;;;5.70;73.60;;;8.43;53.67;102663.94;5057564;28;20179;-55